Time;durP1;ratioP1;P1;durP2;ratioP2;P2;SDS_P1;SDS_P2;PMS_P1;PMS_P2;Temp;Humidity;BMP_temperature;BMP_pressure;BME280_temperature;BME280_humidity;BME280_pressure;Samples;Min_cycle;Max_cycle;Signal;HPM_P1;HPM_P2
2022/07/27 00:02:21;;;;;;;4.30;2.33;;;17.40;1.00;;;;;;6277218;28;20368;-56
2022/07/27 00:05:24;;;;;;;3.00;2.70;;;17.40;1.00;;;;;;6284556;28;20229;-56
2022/07/27 00:08:27;;;;;;;3.67;2.43;;;17.30;1.00;;;;;;6305082;28;20680;-57
2022/07/27 00:11:31;;;;;;;2.40;2.17;;;17.30;1.00;;;;;;6277709;28;20244;-57
2022/07/27 00:14:34;;;;;;;2.20;2.10;;;17.30;1.00;;;;;;6293242;28;20722;-57
2022/07/27 00:17:37;;;;;;;3.67;2.47;;;17.20;1.00;;;;;;6293994;28;20361;-56
2022/07/27 00:20:40;;;;;;;2.47;2.20;;;17.20;1.00;;;;;;6279226;28;20316;-57
2022/07/27 00:23:43;;;;;;;5.70;2.43;;;17.20;1.00;;;;;;6275707;28;20254;-57
2022/07/27 00:26:47;;;;;;;2.30;2.10;;;17.20;1.00;;;;;;6280474;28;20551;-58
2022/07/27 00:29:50;;;;;;;2.40;2.20;;;17.10;1.00;;;;;;6281561;28;20336;-57
2022/07/27 00:32:53;;;;;;;5.13;2.43;;;17.10;1.00;;;;;;6274724;28;20233;-56
2022/07/27 00:35:57;;;;;;;4.80;2.50;;;17.10;1.00;;;;;;6266418;28;20226;-57
2022/07/27 00:39:00;;;;;;;3.53;2.20;;;17.00;1.00;;;;;;6295003;28;20525;-57
2022/07/27 00:42:05;;;;;;;4.40;1.90;;;17.00;1.00;;;;;;6272805;28;20706;-57
2022/07/27 00:45:09;;;;;;;3.37;2.33;;;17.00;1.00;;;;;;6283540;28;20239;-57
2022/07/27 00:48:12;;;;;;;3.93;2.03;;;17.00;1.00;;;;;;6295247;28;20678;-56
2022/07/27 00:51:16;;;;;;;4.67;2.27;;;16.90;1.00;;;;;;6277530;28;20291;-55
2022/07/27 00:54:19;;;;;;;3.80;2.33;;;16.80;1.00;;;;;;6279013;28;20298;-57
2022/07/27 00:57:24;;;;;;;2.93;2.10;;;16.70;1.00;;;;;;6291383;28;20297;-56
2022/07/27 01:00:27;;;;;;;3.43;2.20;;;16.60;1.00;;;;;;6275897;28;20276;-56
2022/07/27 01:03:30;;;;;;;4.10;2.37;;;16.60;1.00;;;;;;6277176;28;20589;-56
2022/07/27 01:06:34;;;;;;;2.67;2.07;;;16.50;1.00;;;;;;6268942;28;20307;-56
2022/07/27 01:13:03;;;;;;;2.00;1.87;;;16.30;1.00;;;;;;6269342;28;20244;-56
2022/07/27 01:16:07;;;;;;;2.40;2.20;;;16.30;1.00;;;;;;6265349;28;20235;-56
2022/07/27 01:19:11;;;;;;;2.00;1.90;;;16.20;1.00;;;;;;6290727;28;20262;-57
2022/07/27 01:22:16;;;;;;;2.57;2.30;;;16.20;1.00;;;;;;6282703;28;20252;-57
2022/07/27 01:25:19;;;;;;;2.20;2.00;;;16.10;1.00;;;;;;6276514;28;20465;-56
2022/07/27 01:28:22;;;;;;;5.47;2.33;;;16.10;1.00;;;;;;6282312;28;20464;-57
2022/07/27 01:31:27;;;;;;;2.87;2.50;;;16.00;1.00;;;;;;6272255;28;20230;-58
2022/07/27 01:34:32;;;;;;;2.77;2.50;;;16.00;1.00;;;;;;6297132;28;20225;-56
2022/07/27 01:37:36;;;;;;;7.77;2.67;;;15.90;1.00;;;;;;6277176;28;20232;-56
2022/07/27 01:40:41;;;;;;;4.87;2.20;;;15.90;1.00;;;;;;6269654;28;20295;-55
2022/07/27 01:43:45;;;;;;;3.50;2.40;;;15.80;1.00;;;;;;6266913;28;20320;-55
2022/07/27 01:46:48;;;;;;;3.83;2.27;;;15.80;1.00;;;;;;6266545;28;20259;-57
2022/07/27 01:49:51;;;;;;;3.67;2.47;;;15.70;1.00;;;;;;6269380;28;20320;-57
2022/07/27 01:52:55;;;;;;;2.97;2.30;;;15.70;1.00;;;;;;6276797;28;20324;-57
2022/07/27 01:55:58;;;;;;;6.93;2.70;;;15.60;1.00;;;;;;6275355;28;20359;-56
2022/07/27 01:59:01;;;;;;;7.17;2.70;;;15.60;1.00;;;;;;6271033;28;20364;-57
2022/07/27 02:02:04;;;;;;;3.53;2.20;;;15.60;1.00;;;;;;6268464;28;20309;-55
2022/07/27 02:05:10;;;;;;;3.50;2.30;;;15.50;1.00;;;;;;6278761;28;20365;-56
2022/07/27 02:08:15;;;;;;;6.80;2.50;;;15.50;1.00;;;;;;6279614;28;20248;-57
2022/07/27 02:14:38;;;;;;;4.10;2.43;;;15.40;1.00;;;;;;6276575;28;20217;-56
2022/07/27 02:17:42;;;;;;;4.47;2.43;;;15.40;1.00;;;;;;6272787;28;20458;-56
2022/07/27 02:20:46;;;;;;;4.43;2.40;;;15.30;1.00;;;;;;6274195;28;20349;-55
2022/07/27 02:23:54;;;;;;;6.40;2.47;;;15.30;1.00;;;;;;6267233;28;20240;-57
2022/07/27 02:26:56;;;;;;;5.10;2.27;;;15.30;1.00;;;;;;6286193;28;20294;-57
2022/07/27 02:30:00;;;;;;;3.40;2.50;;;15.20;1.00;;;;;;6276781;28;20242;-57
2022/07/27 02:33:03;;;;;;;3.87;2.23;;;15.10;1.00;;;;;;6278685;28;20235;-55
2022/07/27 02:36:07;;;;;;;3.17;2.67;;;15.00;1.00;;;;;;6252439;28;1085779;-56
2022/07/27 02:39:11;;;;;;;5.13;2.70;;;15.00;1.00;;;;;;6275445;28;20233;-57
2022/07/27 02:42:15;;;;;;;3.47;2.37;;;15.00;1.00;;;;;;6268115;28;20329;-57
2022/07/27 02:45:18;;;;;;;2.80;2.60;;;14.90;1.00;;;;;;6279237;28;20225;-56
2022/07/27 02:48:21;;;;;;;2.50;2.30;;;14.90;1.00;;;;;;6280963;28;20455;-57
2022/07/27 02:51:24;;;;;;;4.87;2.53;;;14.80;1.00;;;;;;6277647;28;20710;-57
2022/07/27 02:54:31;;;;;;;6.30;2.50;;;14.80;1.00;;;;;;6265503;28;20233;-55
2022/07/27 02:57:36;;;;;;;4.60;2.50;;;14.70;1.00;;;;;;6269398;28;20282;-57
2022/07/27 03:00:39;;;;;;;5.77;2.70;;;14.70;1.00;;;;;;6266326;28;20453;-56
2022/07/27 03:03:42;;;;;;;5.00;2.70;;;14.60;1.00;;;;;;6278273;28;20226;-55
2022/07/27 03:06:45;;;;;;;4.23;2.80;;;14.60;1.00;;;;;;6280994;28;20777;-57
2022/07/27 03:09:50;;;;;;;2.93;2.40;;;14.50;1.00;;;;;;6287337;28;20282;-56
2022/07/27 03:12:54;;;;;;;2.67;2.47;;;14.50;1.00;;;;;;6267612;28;20237;-56
2022/07/27 03:15:57;;;;;;;5.07;2.23;;;14.40;1.00;;;;;;6274117;28;20237;-58
2022/07/27 03:19:00;;;;;;;5.17;2.73;;;14.40;1.00;;;;;;6273140;28;20252;-56
2022/07/27 03:22:03;;;;;;;3.00;2.70;;;14.40;1.00;;;;;;6272017;28;20395;-57
2022/07/27 03:25:09;;;;;;;3.47;2.00;;;14.40;1.00;;;;;;6269672;28;22660;-56
2022/07/27 03:28:12;;;;;;;5.17;2.47;;;14.40;1.00;;;;;;6276845;28;20330;-56
2022/07/27 03:31:15;;;;;;;3.63;2.50;;;14.40;1.00;;;;;;6275607;28;20375;-57
2022/07/27 03:34:18;;;;;;;7.57;3.00;;;14.40;1.00;;;;;;6271241;28;20234;-57
2022/07/27 03:37:21;;;;;;;3.37;2.20;;;14.40;1.00;;;;;;6276484;28;20290;-56
2022/07/27 03:40:28;;;;;;;6.43;2.70;;;14.40;1.00;;;;;;6271814;28;20260;-57
2022/07/27 03:43:31;;;;;;;2.80;2.57;;;14.40;1.00;;;;;;6275757;28;20658;-56
2022/07/27 03:46:34;;;;;;;3.40;2.60;;;14.40;1.00;;;;;;6277346;28;20348;-56
2022/07/27 03:49:37;;;;;;;2.67;2.50;;;14.40;1.00;;;;;;6275012;28;20282;-56
2022/07/27 03:52:40;;;;;;;6.03;2.70;;;14.30;1.00;;;;;;6279508;28;20325;-56
2022/07/27 03:55:49;;;;;;;2.50;2.30;;;14.40;1.00;;;;;;6283029;28;20240;-57
2022/07/27 03:58:52;;;;;;;3.80;2.77;;;14.40;1.00;;;;;;6284524;28;20241;-57
2022/07/27 04:01:55;;;;;;;2.67;2.37;;;14.50;1.00;;;;;;6275885;28;20290;-57
2022/07/27 04:04:58;;;;;;;7.07;2.80;;;14.40;1.00;;;;;;6285234;28;20240;-57
2022/07/27 04:08:01;;;;;;;3.03;2.30;;;14.40;1.00;;;;;;6284712;28;20306;-56
2022/07/27 04:11:05;;;;;;;5.47;2.67;;;14.40;1.00;;;;;;6277317;28;20718;-57
2022/07/27 04:14:13;;;;;;;2.63;2.47;;;14.40;1.00;;;;;;6277429;28;20439;-57
2022/07/27 04:17:16;;;;;;;3.17;2.60;;;14.40;1.00;;;;;;6281825;28;20720;-55
2022/07/27 04:20:39;;;;;;;3.20;2.40;;;14.40;1.00;;;;;;6274350;28;20694;-57
2022/07/27 04:23:42;;;;;;;2.97;2.60;;;14.40;1.00;;;;;;6276578;28;20590;-57
2022/07/27 04:26:47;;;;;;;3.77;2.70;;;14.40;1.00;;;;;;6275299;28;20621;-57
2022/07/27 04:29:49;;;;;;;5.13;2.60;;;14.40;1.00;;;;;;6281387;28;20330;-57
2022/07/27 04:32:53;;;;;;;6.50;2.80;;;14.40;1.00;;;;;;6279429;28;20866;-55
2022/07/27 04:35:56;;;;;;;2.80;2.70;;;14.40;1.00;;;;;;6282304;28;20229;-55
2022/07/27 04:38:59;;;;;;;3.80;2.77;;;14.40;1.00;;;;;;6273546;28;20273;-57
2022/07/27 04:42:03;;;;;;;4.97;2.63;;;14.30;1.00;;;;;;6276190;28;20237;-56
2022/07/27 04:45:07;;;;;;;2.43;2.33;;;14.40;1.00;;;;;;6275946;28;20237;-55
2022/07/27 04:48:12;;;;;;;3.73;2.30;;;14.40;1.00;;;;;;6283045;28;20225;-57
2022/07/27 04:51:16;;;;;;;5.87;2.60;;;14.40;1.00;;;;;;6277163;28;20724;-55
2022/07/27 04:54:19;;;;;;;4.87;2.80;;;14.40;1.00;;;;;;6281198;28;20245;-56
2022/07/27 04:57:23;;;;;;;3.27;2.40;;;14.50;1.00;;;;;;6277023;28;20479;-56
2022/07/27 05:00:26;;;;;;;8.47;2.63;;;14.60;1.00;;;;;;6279461;28;20237;-55
2022/07/27 05:03:29;;;;;;;6.90;2.90;;;14.80;1.00;;;;;;6288111;28;20318;-61
2022/07/27 05:06:32;;;;;;;3.37;2.40;;;15.00;1.00;;;;;;6283991;28;20324;-56
2022/07/27 05:09:35;;;;;;;2.80;2.63;;;15.30;1.00;;;;;;6280557;28;20239;-55
2022/07/27 05:12:40;;;;;;;3.07;2.63;;;15.60;1.00;;;;;;6285622;28;20348;-55
2022/07/27 05:15:43;;;;;;;3.50;2.47;;;15.90;1.00;;;;;;6275784;28;20226;-57
2022/07/27 05:18:57;;;;;;;6.03;2.63;;;16.10;1.00;;;;;;6281597;28;20332;-57
2022/07/27 05:22:01;;;;;;;3.93;2.70;;;16.20;1.00;;;;;;6272261;28;20363;-59
2022/07/27 05:25:04;;;;;;;5.73;2.70;;;16.40;1.00;;;;;;6276520;28;20405;-56
2022/07/27 05:28:10;;;;;;;4.33;2.90;;;16.50;1.00;;;;;;6267126;28;20230;-56
2022/07/27 05:31:13;;;;;;;5.30;2.47;;;16.50;1.00;;;;;;6274736;28;20321;-57
2022/07/27 05:34:16;;;;;;;6.27;2.80;;;16.50;1.00;;;;;;6280439;28;20698;-56
2022/07/27 05:37:19;;;;;;;7.03;3.00;;;16.40;1.00;;;;;;6280565;28;20852;-57
2022/07/27 05:40:22;;;;;;;6.00;2.93;;;16.20;1.00;;;;;;6278529;28;20727;-58
2022/07/27 05:43:27;;;;;;;3.33;2.50;;;16.20;1.00;;;;;;6271308;28;20233;-55
2022/07/27 05:46:32;;;;;;;6.47;2.90;;;16.20;1.00;;;;;;6277774;28;20333;-56
2022/07/27 05:49:35;;;;;;;3.57;2.17;;;16.50;1.00;;;;;;6271687;28;20380;-56
2022/07/27 05:52:38;;;;;;;7.07;2.50;;;17.00;1.00;;;;;;6279071;28;20230;-56
2022/07/27 05:55:41;;;;;;;6.03;2.67;;;17.40;1.00;;;;;;6282973;28;20320;-55
2022/07/27 05:59:02;;;;;;;3.23;2.53;;;17.70;1.00;;;;;;6272318;28;20241;-56
2022/07/27 06:02:09;;;;;;;4.37;2.13;;;17.80;1.00;;;;;;6272991;28;20268;-57
2022/07/27 06:05:12;;;;;;;2.70;2.20;;;17.80;1.00;;;;;;6278751;28;20233;-56
2022/07/27 06:08:18;;;;;;;9.47;2.20;;;17.80;1.00;;;;;;6276076;28;20255;-56
2022/07/27 06:11:21;;;;;;;3.53;2.30;;;17.70;1.00;;;;;;6281370;28;20232;-59
2022/07/27 06:14:26;;;;;;;3.10;2.40;;;17.90;1.00;;;;;;6276025;28;20338;-57
2022/07/27 06:17:28;;;;;;;2.40;2.20;;;18.00;1.00;;;;;;6278377;28;20269;-55
2022/07/27 06:20:31;;;;;;;7.83;2.17;;;18.40;1.00;;;;;;6280496;28;20274;-55
2022/07/27 06:23:34;;;;;;;2.07;1.97;;;18.50;1.00;;;;;;6277991;28;20313;-56
2022/07/27 06:26:37;;;;;;;4.40;2.63;;;18.60;1.00;;;;;;6280768;28;20665;-55
2022/07/27 06:29:42;;;;;;;6.03;2.53;;;18.60;1.00;;;;;;6274653;28;20320;-56
2022/07/27 06:32:45;;;;;;;7.87;2.93;;;18.50;1.00;;;;;;6278979;28;20289;-55
2022/07/27 06:35:48;;;;;;;11.30;2.70;;;18.00;1.00;;;;;;6283294;28;20233;-56
2022/07/27 06:38:51;;;;;;;5.33;2.50;;;17.80;1.00;;;;;;6283648;28;20464;-55
2022/07/27 06:41:54;;;;;;;8.73;2.70;;;17.50;1.00;;;;;;6280903;28;20275;-57
2022/07/27 06:45:01;;;;;;;3.10;2.23;;;17.40;1.00;;;;;;6287744;28;20233;-56
2022/07/27 06:48:05;;;;;;;4.17;2.43;;;17.60;1.00;;;;;;6280217;28;20248;-56
2022/07/27 06:51:08;;;;;;;3.63;2.40;;;17.70;1.00;;;;;;6277218;28;20263;-55
2022/07/27 06:54:11;;;;;;;5.13;2.67;;;17.70;1.00;;;;;;6283242;28;20387;-58
2022/07/27 06:57:14;;;;;;;5.37;2.50;;;17.90;1.00;;;;;;6274746;28;20434;-55
2022/07/27 07:00:19;;;;;;;4.77;2.33;;;17.90;1.00;;;;;;6285642;28;20237;-55
2022/07/27 07:03:22;;;;;;;5.77;2.50;;;18.10;1.00;;;;;;6277947;28;20320;-57
2022/07/27 07:06:25;;;;;;;4.37;2.30;;;18.20;1.00;;;;;;6289028;28;20263;-55
2022/07/27 07:09:29;;;;;;;4.60;2.40;;;18.30;1.00;;;;;;6287004;28;20371;-56
2022/07/27 07:12:32;;;;;;;8.37;2.30;;;18.20;1.00;;;;;;6275905;28;20287;-56
2022/07/27 07:15:38;;;;;;;4.07;2.50;;;18.20;1.00;;;;;;6289966;28;20601;-57
2022/07/27 07:18:41;;;;;;;3.50;2.40;;;18.30;1.00;;;;;;6274649;28;20282;-55
2022/07/27 07:21:44;;;;;;;4.77;2.27;;;18.30;1.00;;;;;;6278595;28;20771;-55
2022/07/27 07:24:47;;;;;;;4.17;1.90;;;18.60;1.00;;;;;;6287765;28;20306;-57
2022/07/27 07:27:50;;;;;;;4.37;2.27;;;18.60;1.00;;;;;;6283114;28;20233;-57
2022/07/27 07:30:54;;;;;;;5.40;3.00;;;18.70;1.00;;;;;;6285716;28;20274;-57
2022/07/27 07:33:58;;;;;;;2.97;2.00;;;18.70;1.00;;;;;;6286178;28;20225;-57
2022/07/27 07:37:01;;;;;;;6.63;2.20;;;18.60;1.00;;;;;;6292854;28;20784;-57
2022/07/27 07:40:06;;;;;;;3.53;2.40;;;18.30;1.00;;;;;;6281445;28;20237;-56
2022/07/27 07:43:29;;;;;;;3.07;2.23;;;18.30;1.00;;;;;;6279743;28;20235;-56
2022/07/27 07:46:35;;;;;;;4.13;2.00;;;18.50;1.00;;;;;;6269819;28;20308;-56
2022/07/27 07:49:38;;;;;;;2.63;2.00;;;18.80;1.00;;;;;;6284874;28;20233;-54
2022/07/27 07:52:42;;;;;;;2.00;1.90;;;19.10;1.00;;;;;;6282045;28;20370;-56
2022/07/27 07:55:45;;;;;;;2.63;1.90;;;19.20;1.00;;;;;;6283026;28;20718;-56
2022/07/27 07:58:48;;;;;;;2.87;1.87;;;19.50;1.00;;;;;;6288282;28;20309;-56
2022/07/27 08:01:53;;;;;;;2.07;1.90;;;19.60;1.00;;;;;;6272225;28;20778;-56
2022/07/27 08:04:56;;;;;;;2.50;2.10;;;19.10;1.00;;;;;;6269633;28;20222;-55
2022/07/27 08:07:59;;;;;;;3.00;1.83;;;19.00;1.00;;;;;;6278304;28;20400;-58
2022/07/27 08:11:01;;;;;;;3.23;1.70;;;19.00;1.00;;;;;;6285046;28;20242;-54
2022/07/27 08:14:04;;;;;;;6.83;1.63;;;18.60;1.00;;;;;;6281933;28;20298;-56
2022/07/27 08:17:09;;;;;;;3.07;1.80;;;18.60;1.00;;;;;;6285077;28;20754;-56
2022/07/27 08:20:13;;;;;;;2.53;1.93;;;18.70;1.00;;;;;;6287668;28;20678;-55
2022/07/27 08:23:16;;;;;;;2.47;2.00;;;18.70;1.00;;;;;;6276255;28;20229;-55
2022/07/27 08:26:20;;;;;;;2.90;1.80;;;18.70;1.00;;;;;;6271660;28;20571;-55
2022/07/27 08:29:24;;;;;;;1.93;1.80;;;18.70;1.00;;;;;;6277220;28;20241;-56
2022/07/27 08:32:54;;;;;;;2.30;1.80;;;18.60;1.00;;;;;;6273839;28;20722;-56
2022/07/27 08:35:58;;;;;;;5.13;2.00;;;18.60;1.00;;;;;;6279022;28;20783;-57
2022/07/27 08:39:07;;;;;;;4.30;2.00;;;18.70;1.00;;;;;;6285270;28;20872;-56
2022/07/27 08:42:10;;;;;;;2.53;1.87;;;18.80;1.00;;;;;;6268412;28;20241;-56
2022/07/27 08:45:15;;;;;;;2.37;2.27;;;18.80;1.00;;;;;;6277889;28;20606;-56
2022/07/27 08:48:21;;;;;;;1.57;1.57;;;18.80;1.00;;;;;;6286106;28;20236;-57
2022/07/27 08:51:24;;;;;;;2.67;2.00;;;18.90;1.00;;;;;;6275696;28;20278;-54
2022/07/27 08:54:27;;;;;;;2.50;2.00;;;19.00;1.00;;;;;;6277091;28;20638;-56
2022/07/27 08:57:30;;;;;;;2.10;1.90;;;19.00;1.00;;;;;;6285470;28;20255;-57
2022/07/27 09:00:35;;;;;;;2.13;1.87;;;18.90;1.00;;;;;;6287639;28;20748;-56
2022/07/27 09:03:40;;;;;;;2.50;1.90;;;18.80;1.00;;;;;;6277838;28;20766;-56
2022/07/27 09:06:46;;;;;;;3.17;2.13;;;18.70;1.00;;;;;;6282136;28;20633;-57
2022/07/27 09:09:56;;;;;;;1.73;1.63;;;18.60;1.00;;;;;;6279856;28;20618;-56
2022/07/27 09:12:59;;;;;;;2.00;1.70;;;18.60;1.00;;;;;;6266569;28;20493;-54
2022/07/27 09:16:04;;;;;;;2.40;2.20;;;18.70;1.00;;;;;;6276212;28;20316;-55
2022/07/27 09:19:22;;;;;;;3.20;1.83;;;19.00;1.00;;;;;;6278469;28;20249;-56
2022/07/27 09:22:43;;;;;;;2.07;1.90;;;19.40;1.00;;;;;;6277594;28;20324;-56
2022/07/27 09:25:46;;;;;;;2.07;1.97;;;19.50;1.00;;;;;;6283168;28;20229;-55
2022/07/27 09:29:08;;;;;;;2.50;1.80;;;19.50;1.00;;;;;;6280606;28;20645;-56
2022/07/27 09:32:15;;;;;;;5.83;2.30;;;19.50;1.00;;;;;;6279942;28;20250;-56
2022/07/27 09:35:22;;;;;;;6.23;1.83;;;19.60;1.00;;;;;;6269295;28;20265;-55
2022/07/27 09:38:25;;;;;;;2.57;2.03;;;19.50;1.00;;;;;;6267238;28;20316;-54
2022/07/27 09:41:39;;;;;;;2.17;2.00;;;19.40;1.00;;;;;;6287150;28;20383;-57
2022/07/27 09:44:43;;;;;;;2.40;2.17;;;19.60;1.00;;;;;;6265749;28;20398;-56
2022/07/27 09:48:13;;;;;;;2.20;1.90;;;19.70;1.00;;;;;;6270932;28;20363;-57
2022/07/27 09:51:18;;;;;;;1.93;1.80;;;19.70;1.00;;;;;;6272706;28;20280;-57
2022/07/27 09:54:45;;;;;;;2.43;2.03;;;19.70;1.00;;;;;;6268510;28;20493;-55
2022/07/27 09:57:53;;;;;;;3.90;1.90;;;19.60;1.00;;;;;;6268867;28;20727;-55
2022/07/27 10:00:57;;;;;;;1.93;1.80;;;19.60;1.00;;;;;;6275018;28;20226;-56
2022/07/27 10:04:03;;;;;;;4.57;1.67;;;19.80;1.00;;;;;;6270465;28;20380;-55
2022/07/27 10:07:08;;;;;;;1.90;1.80;;;19.80;1.00;;;;;;6281583;28;20330;-56
2022/07/27 10:10:16;;;;;;;3.93;1.97;;;19.90;1.00;;;;;;6277957;28;20233;-54
2022/07/27 10:13:19;;;;;;;2.07;1.87;;;20.20;1.00;;;;;;6280423;28;20257;-55
2022/07/27 10:16:23;;;;;;;1.80;1.70;;;20.50;1.00;;;;;;6277962;28;20356;-57
2022/07/27 10:19:34;;;;;;;1.93;1.80;;;20.80;1.00;;;;;;6269319;28;20237;-56
2022/07/27 10:22:59;;;;;;;5.53;1.80;;;20.80;1.00;;;;;;6271380;28;20409;-56
2022/07/27 10:26:28;;;;;;;4.13;2.00;;;20.90;1.00;;;;;;6267667;28;20229;-55
2022/07/27 10:29:31;;;;;;;1.87;1.60;;;20.80;1.00;;;;;;6265933;28;20234;-55
2022/07/27 10:32:35;;;;;;;3.10;1.83;;;20.70;1.00;;;;;;6281576;28;20229;-57
2022/07/27 10:35:38;;;;;;;1.70;1.60;;;20.90;1.00;;;;;;6269909;28;20286;-56
2022/07/27 10:38:47;;;;;;;6.83;2.00;;;21.00;1.00;;;;;;6273162;28;20700;-55
2022/07/27 10:41:50;;;;;;;3.37;1.93;;;21.00;1.00;;;;;;6284805;28;20366;-55
2022/07/27 10:45:05;;;;;;;4.57;1.80;;;20.90;1.00;;;;;;6284055;28;20233;-56
2022/07/27 10:48:28;;;;;;;3.80;1.80;;;21.00;1.00;;;;;;6282764;28;20902;-55
2022/07/27 10:51:35;;;;;;;2.60;2.00;;;21.10;1.00;;;;;;6275187;28;20647;-55
2022/07/27 10:54:40;;;;;;;2.50;1.90;;;21.30;1.00;;;;;;6281091;28;20539;-56
2022/07/27 10:57:43;;;;;;;2.13;1.93;;;21.40;1.00;;;;;;6284162;28;20259;-55
2022/07/27 11:01:06;;;;;;;4.83;1.70;;;21.50;1.00;;;;;;6288910;28;20351;-55
2022/07/27 11:04:10;;;;;;;3.57;1.77;;;21.70;1.00;;;;;;6291331;28;20823;-56
2022/07/27 11:07:18;;;;;;;5.57;2.10;;;21.80;1.00;;;;;;6280117;28;20237;-60
2022/07/27 11:10:44;;;;;;;2.03;1.93;;;21.70;1.00;;;;;;6273232;28;20713;-56
2022/07/27 11:13:49;;;;;;;2.23;2.00;;;21.60;1.00;;;;;;6278669;28;20697;-54
2022/07/27 11:16:52;;;;;;;2.63;1.80;;;21.60;1.00;;;;;;6268273;28;20325;-56
2022/07/27 11:20:03;;;;;;;3.87;1.97;;;21.60;1.00;;;;;;6288283;28;20233;-57
2022/07/27 11:23:18;;;;;;;3.23;1.90;;;21.80;1.00;;;;;;6280650;28;20252;-56
2022/07/27 11:26:44;;;;;;;4.23;2.20;;;22.00;1.00;;;;;;6280939;28;20226;-55
2022/07/27 11:29:47;;;;;;;4.60;2.07;;;21.80;1.00;;;;;;6273152;28;20312;-54
2022/07/27 11:32:50;;;;;;;2.33;2.13;;;21.70;1.00;;;;;;6275389;28;20313;-53
2022/07/27 11:35:54;;;;;;;2.27;1.77;;;21.70;1.00;;;;;;6283408;28;20316;-55
2022/07/27 11:38:57;;;;;;;2.73;1.83;;;21.70;1.00;;;;;;6280581;28;20716;-56
2022/07/27 11:42:03;;;;;;;1.73;1.63;;;22.00;1.00;;;;;;6284726;28;20254;-56
2022/07/27 11:45:28;;;;;;;2.10;1.83;;;22.00;1.00;;;;;;6281151;28;20688;-56
2022/07/27 11:48:31;;;;;;;3.77;1.83;;;22.20;1.00;;;;;;6276962;28;20321;-56
2022/07/27 11:51:56;;;;;;;2.27;1.70;;;22.00;1.00;;;;;;6277632;28;20241;-55
2022/07/27 11:54:59;;;;;;;3.93;2.20;;;21.70;1.00;;;;;;6282243;28;20722;-56
2022/07/27 11:58:06;;;;;;;4.67;1.80;;;21.40;1.00;;;;;;6287680;28;20260;-56
2022/07/27 12:01:09;;;;;;;2.13;1.60;;;21.30;1.00;;;;;;6282386;28;20302;-55
2022/07/27 12:04:17;;;;;;;2.13;1.80;;;21.30;1.00;;;;;;6285841;28;20229;-55
2022/07/27 12:07:27;;;;;;;2.93;1.90;;;21.40;1.00;;;;;;6283732;28;20352;-57
2022/07/27 12:10:30;;;;;;;2.30;1.97;;;21.30;1.00;;;;;;6287455;28;20315;-56
2022/07/27 12:13:40;;;;;;;4.53;1.77;;;21.30;1.00;;;;;;6280637;28;20245;-56
2022/07/27 12:16:43;;;;;;;1.83;1.70;;;21.40;1.00;;;;;;6284261;28;20427;-55
2022/07/27 12:19:52;;;;;;;2.07;1.97;;;21.70;1.00;;;;;;6282033;28;20716;-55
2022/07/27 12:22:55;;;;;;;1.70;1.60;;;22.00;1.00;;;;;;6285710;28;20330;-56
2022/07/27 12:25:58;;;;;;;2.13;2.03;;;22.10;1.00;;;;;;6271906;28;20412;-55
2022/07/27 12:29:10;;;;;;;4.00;1.87;;;22.20;1.00;;;;;;6280435;28;20370;-54
2022/07/27 12:32:14;;;;;;;3.23;2.57;;;22.30;1.00;;;;;;6284128;28;20229;-55
2022/07/27 12:35:23;;;;;;;3.07;2.10;;;22.30;1.00;;;;;;6246900;28;20547;-55
2022/07/27 12:38:37;;;;;;;9.47;3.33;;;22.40;1.00;;;;;;6279073;28;20902;-55
2022/07/27 12:41:41;;;;;;;6.57;2.17;;;22.50;1.00;;;;;;6281562;28;20451;-53
2022/07/27 12:44:46;;;;;;;4.17;2.27;;;22.50;1.00;;;;;;6280827;28;20241;-55
2022/07/27 12:47:49;;;;;;;2.87;2.00;;;21.90;1.00;;;;;;6275394;28;20260;-56
2022/07/27 12:50:58;;;;;;;7.00;2.13;;;21.80;1.00;;;;;;6287685;28;20323;-56
2022/07/27 12:54:01;;;;;;;3.60;2.40;;;21.80;1.00;;;;;;6283559;28;20244;-56
2022/07/27 12:57:05;;;;;;;5.33;2.00;;;22.00;1.00;;;;;;6288168;28;20237;-55
2022/07/27 13:00:11;;;;;;;2.47;1.87;;;22.20;1.00;;;;;;6284158;28;20295;-57
2022/07/27 13:03:15;;;;;;;7.57;2.10;;;22.10;1.00;;;;;;6286857;28;20681;-56
2022/07/27 13:06:18;;;;;;;3.50;2.27;;;22.10;1.00;;;;;;6285839;28;20324;-55
2022/07/27 13:09:21;;;;;;;3.63;2.33;;;22.00;1.00;;;;;;6281702;28;20267;-56
2022/07/27 13:12:24;;;;;;;4.37;1.90;;;22.00;1.00;;;;;;6277201;28;20297;-55
2022/07/27 13:15:28;;;;;;;2.43;2.23;;;22.10;1.00;;;;;;6292596;28;20278;-55
2022/07/27 13:18:31;;;;;;;4.63;1.87;;;22.20;1.00;;;;;;6287414;28;20232;-58
2022/07/27 13:21:34;;;;;;;3.57;2.10;;;22.20;1.00;;;;;;6283685;28;20313;-54
2022/07/27 13:24:37;;;;;;;3.77;1.80;;;22.20;1.00;;;;;;6286845;28;20663;-54
2022/07/27 13:27:41;;;;;;;2.17;1.97;;;22.10;1.00;;;;;;6277852;28;20229;-56
2022/07/27 13:30:45;;;;;;;2.50;2.30;;;22.00;1.00;;;;;;6288299;28;20262;-54
2022/07/27 13:33:48;;;;;;;3.27;2.10;;;22.10;1.00;;;;;;6281483;28;20294;-54
2022/07/27 13:36:51;;;;;;;2.63;1.87;;;22.00;1.00;;;;;;6290940;28;20343;-55
2022/07/27 13:39:54;;;;;;;2.27;2.10;;;21.90;1.00;;;;;;6283074;28;20418;-54
2022/07/27 13:42:57;;;;;;;3.70;1.93;;;22.20;1.00;;;;;;6285950;28;20233;-56
2022/07/27 13:46:02;;;;;;;2.13;1.97;;;22.40;1.00;;;;;;6283865;28;20324;-56
2022/07/27 13:49:05;;;;;;;4.93;1.90;;;22.30;1.00;;;;;;6286011;28;20244;-54
2022/07/27 13:52:11;;;;;;;3.53;2.03;;;22.40;1.00;;;;;;6275331;28;20291;-56
2022/07/27 13:55:14;;;;;;;2.80;1.70;;;22.50;1.00;;;;;;6282691;28;20323;-55
2022/07/27 13:58:17;;;;;;;2.77;1.70;;;22.50;1.00;;;;;;6286339;28;20312;-54
2022/07/27 14:01:22;;;;;;;3.50;2.00;;;22.60;1.00;;;;;;6288791;28;20323;-55
2022/07/27 14:04:25;;;;;;;3.13;1.90;;;22.60;1.00;;;;;;6283015;28;20233;-55
2022/07/27 14:07:28;;;;;;;4.40;1.70;;;22.50;1.00;;;;;;6277553;28;20367;-55
2022/07/27 14:10:31;;;;;;;1.93;1.77;;;22.40;1.00;;;;;;6288039;28;20322;-55
2022/07/27 14:13:34;;;;;;;1.83;1.70;;;22.40;1.00;;;;;;6281642;28;20724;-54
2022/07/27 14:16:38;;;;;;;9.53;2.20;;;22.20;1.00;;;;;;6277115;28;20241;-53
2022/07/27 14:19:42;;;;;;;2.10;1.90;;;22.20;1.00;;;;;;6282790;28;20241;-53
2022/07/27 14:22:45;;;;;;;3.63;2.00;;;22.00;1.00;;;;;;6289231;28;20640;-54
2022/07/27 14:25:48;;;;;;;3.63;2.00;;;22.00;1.00;;;;;;6282579;28;20709;-55
2022/07/27 14:28:53;;;;;;;2.10;2.00;;;22.00;1.00;;;;;;6284736;28;20403;-55
2022/07/27 14:31:57;;;;;;;4.97;2.00;;;22.10;1.00;;;;;;6282385;28;20315;-55
2022/07/27 14:35:00;;;;;;;2.50;1.90;;;22.10;1.00;;;;;;6282456;28;20247;-55
2022/07/27 14:38:03;;;;;;;2.73;2.00;;;22.10;1.00;;;;;;6283095;28;20463;-56
2022/07/27 14:41:06;;;;;;;3.07;1.97;;;22.00;1.00;;;;;;6284489;28;20327;-55
2022/07/27 14:44:09;;;;;;;4.67;1.70;;;22.00;1.00;;;;;;6289541;28;20279;-54
2022/07/27 14:47:14;;;;;;;1.80;1.70;;;22.10;1.00;;;;;;6279235;28;20364;-54
2022/07/27 14:50:17;;;;;;;2.93;1.97;;;22.30;1.00;;;;;;6274098;28;20244;-54
2022/07/27 14:53:20;;;;;;;2.90;1.63;;;22.40;1.00;;;;;;6284489;28;20563;-55
2022/07/27 14:56:23;;;;;;;3.50;1.73;;;22.50;1.00;;;;;;6278623;28;20245;-56
2022/07/27 14:59:26;;;;;;;3.03;2.03;;;22.60;1.00;;;;;;6277353;28;20327;-56
2022/07/27 15:02:33;;;;;;;2.40;1.70;;;22.70;1.00;;;;;;6282734;28;20410;-54
2022/07/27 15:05:37;;;;;;;3.17;1.70;;;22.50;1.00;;;;;;6269788;28;20949;-55
2022/07/27 15:08:52;;;;;;;3.60;2.10;;;22.40;1.00;;;;;;6271946;28;20320;-56
2022/07/27 15:11:55;;;;;;;2.00;1.77;;;22.30;1.00;;;;;;6273979;28;20234;-54
2022/07/27 15:14:59;;;;;;;5.93;1.67;;;22.20;1.00;;;;;;6273729;28;20433;-54
2022/07/27 15:18:05;;;;;;;2.43;1.73;;;22.20;1.00;;;;;;6286121;28;20343;-55
2022/07/27 15:21:09;;;;;;;2.73;1.70;;;22.10;1.00;;;;;;6284618;28;20749;-53
2022/07/27 15:24:16;;;;;;;3.00;1.60;;;22.10;1.00;;;;;;6276879;28;20359;-54
2022/07/27 15:27:19;;;;;;;3.87;1.30;;;22.20;1.00;;;;;;6276683;28;20304;-54
2022/07/27 15:30:22;;;;;;;1.73;1.63;;;22.10;1.00;;;;;;6278238;28;20557;-54
2022/07/27 15:33:27;;;;;;;2.73;1.50;;;22.10;1.00;;;;;;6283333;28;20322;-54
2022/07/27 15:36:30;;;;;;;1.83;1.70;;;22.00;1.00;;;;;;6292197;28;20234;-55
2022/07/27 15:39:37;;;;;;;2.20;2.00;;;22.20;1.00;;;;;;6271247;28;20511;-54
2022/07/27 15:42:40;;;;;;;1.70;1.70;;;22.20;1.00;;;;;;6285081;28;20278;-55
2022/07/27 15:45:46;;;;;;;3.87;1.97;;;22.30;1.00;;;;;;6280781;28;20274;-56
2022/07/27 15:48:51;;;;;;;3.70;1.70;;;22.20;1.00;;;;;;6284232;28;20234;-54
2022/07/27 15:51:54;;;;;;;1.70;1.50;;;22.20;1.00;;;;;;6284441;28;20539;-55
2022/07/27 15:54:57;;;;;;;8.37;1.97;;;22.20;1.00;;;;;;6284482;28;20681;-56
2022/07/27 15:58:00;;;;;;;3.03;1.57;;;22.10;1.00;;;;;;6287189;28;20249;-55
2022/07/27 16:01:03;;;;;;;2.17;1.97;;;22.00;1.00;;;;;;6284214;28;20328;-54
2022/07/27 16:04:08;;;;;;;1.80;1.70;;;22.00;1.00;;;;;;6279252;28;20316;-54
2022/07/27 16:07:11;;;;;;;1.67;1.53;;;22.10;1.00;;;;;;6291664;28;20353;-55
2022/07/27 16:10:14;;;;;;;2.00;1.80;;;22.20;1.00;;;;;;6281329;28;20324;-55
2022/07/27 16:13:17;;;;;;;5.33;1.80;;;22.10;1.00;;;;;;6281162;28;20720;-56
2022/07/27 16:16:24;;;;;;;1.57;1.47;;;22.10;1.00;;;;;;6284311;28;20783;-54
2022/07/27 16:19:29;;;;;;;2.07;1.87;;;22.10;1.00;;;;;;6282547;28;20279;-55
2022/07/27 16:22:33;;;;;;;1.93;1.83;;;22.20;1.00;;;;;;6284955;28;20233;-56
2022/07/27 16:25:36;;;;;;;2.37;1.77;;;22.10;1.00;;;;;;6287989;28;20528;-56